Time;durP1;ratioP1;P1;durP2;ratioP2;P2;SDS_P1;SDS_P2;PMS_P1;PMS_P2;Temp;Humidity;BMP_temperature;BMP_pressure;BME280_temperature;BME280_humidity;BME280_pressure;Samples;Min_cycle;Max_cycle;Signal;HPM_P1;HPM_P2
2021/12/03 00:02:01;;;;;;;;;;;;;;;13.41;63.90;99876.78;5054319;28;1384;-64
2021/12/03 00:04:28;;;;;;;;;;;;;;;13.40;63.93;99880.41;5054435;28;1981;-65
2021/12/03 00:06:55;;;;;;;;;;;;;;;13.38;63.90;99875.22;5054409;28;1044;-75
2021/12/03 00:09:22;;;;;;;;;;;;;;;13.35;64.09;99878.13;5052854;28;1130;-64
2021/12/03 00:11:48;;;;;;;;;;;;;;;13.37;64.39;99896.59;5054355;28;995;-71
2021/12/03 00:14:15;;;;;;;;;;;;;;;13.38;64.04;99900.94;5054446;28;1052;-72
2021/12/03 00:16:41;;;;;;;;;;;;;;;13.37;63.85;99897.44;5054121;28;1020;-71
2021/12/03 00:19:09;;;;;;;;;;;;;;;13.38;64.00;99901.78;5053929;28;1020;-64
2021/12/03 00:21:37;;;;;;;;;;;;;;;13.35;64.53;99901.16;5054783;28;956;-65
2021/12/03 00:24:04;;;;;;;;;;;;;;;13.36;64.30;99895.75;5054019;28;1032;-65
2021/12/03 00:26:32;;;;;;;;;;;;;;;13.37;64.55;99897.44;5054158;28;1976;-73
2021/12/03 00:28:58;;;;;;;;;;;;;;;13.40;64.31;99897.19;5054245;28;1037;-64
2021/12/03 00:31:25;;;;;;;;;;;;;;;13.36;63.90;99886.94;5053857;28;1048;-71
2021/12/03 00:33:51;;;;;;;;;;;;;;;13.38;64.05;99898.28;5056362;28;1052;-72
2021/12/03 00:36:19;;;;;;;;;;;;;;;13.39;64.07;99900.81;5057744;28;968;-65
2021/12/03 00:38:50;;;;;;;;;;;;;;;13.37;64.00;99889.47;5057317;28;1055;-72
2021/12/03 00:41:19;;;;;;;;;;;;;;;13.37;64.00;99884.16;5057713;28;1017;-71
2021/12/03 00:43:47;;;;;;;;;;;;;;;13.35;64.08;99878.13;5057208;28;1012;-72
2021/12/03 00:46:16;;;;;;;;;;;;;;;13.33;64.29;99874.75;5057483;28;1978;-64
2021/12/03 00:48:42;;;;;;;;;;;;;;;13.36;63.92;99881.63;5057261;28;1083;-71
2021/12/03 00:51:09;;;;;;;;;;;;;;;13.35;63.90;99890.53;5057099;28;1079;-65
2021/12/03 00:53:38;;;;;;;;;;;;;;;13.32;63.91;99889.81;5057412;28;957;-72
2021/12/03 00:56:05;;;;;;;;;;;;;;;13.31;64.12;99882.00;5057012;28;1024;-72
2021/12/03 00:58:31;;;;;;;;;;;;;;;13.34;64.02;99879.09;5057345;28;1042;-65
2021/12/03 01:00:58;;;;;;;;;;;;;;;13.34;63.96;99876.44;5057341;28;982;-72
2021/12/03 01:03:24;;;;;;;;;;;;;;;13.36;64.08;99874.50;5056759;28;1501;-72
2021/12/03 01:05:51;;;;;;;;;;;;;;;13.35;64.27;99869.31;5057106;28;1902;-64
2021/12/03 01:08:18;;;;;;;;;;;;;;;13.33;63.88;99864.13;5055732;28;1090;-77
2021/12/03 01:10:45;;;;;;;;;;;;;;;13.33;63.98;99870.28;5056719;28;1064;-72
2021/12/03 01:13:12;;;;;;;;;;;;;;;13.35;64.12;99858.69;5056687;28;1052;-65
2021/12/03 01:15:39;;;;;;;;;;;;;;;13.33;64.16;99858.81;5056626;28;1175;-64
2021/12/03 01:18:07;;;;;;;;;;;;;;;13.32;64.13;99862.44;5056682;28;1060;-65
2021/12/03 01:20:34;;;;;;;;;;;;;;;13.29;64.46;99867.94;5057336;28;942;-71
2021/12/03 01:23:00;;;;;;;;;;;;;;;13.34;64.02;99852.53;5056876;28;977;-64
2021/12/03 01:25:27;;;;;;;;;;;;;;;13.30;64.46;99853.75;5056462;28;1973;-65
2021/12/03 01:27:58;;;;;;;;;;;;;;;13.32;63.99;99847.34;5056400;28;1083;-78
2021/12/03 01:30:24;;;;;;;;;;;;;;;13.31;64.05;99855.44;5056700;28;1032;-77
2021/12/03 01:32:51;;;;;;;;;;;;;;;13.34;64.06;99865.81;5056590;28;996;-65
2021/12/03 01:35:18;;;;;;;;;;;;;;;13.34;64.05;99857.84;5056559;28;1040;-64
2021/12/03 01:37:44;;;;;;;;;;;;;;;13.33;65.07;99858.81;5056247;28;1032;-66
2021/12/03 01:40:13;;;;;;;;;;;;;;;13.34;63.94;99857.84;5056256;28;1094;-64
2021/12/03 01:42:42;;;;;;;;;;;;;;;13.31;64.04;99853.63;5056486;28;1078;-64
2021/12/03 01:45:10;;;;;;;;;;;;;;;13.32;63.89;99844.69;5055874;28;1973;-72
2021/12/03 01:47:37;;;;;;;;;;;;;;;13.31;64.09;99839.50;5056137;28;1154;-65
2021/12/03 01:50:04;;;;;;;;;;;;;;;13.29;64.54;99841.38;5056027;28;1068;-72
2021/12/03 01:52:30;;;;;;;;;;;;;;;13.32;64.20;99849.16;5055907;28;1056;-71
2021/12/03 01:54:59;;;;;;;;;;;;;;;13.27;64.10;99838.88;5055875;28;1266;-64
2021/12/03 01:57:26;;;;;;;;;;;;;;;13.30;64.04;99837.81;5055929;28;973;-66
2021/12/03 01:59:52;;;;;;;;;;;;;;;13.33;64.14;99829.63;5055834;28;1040;-64
2021/12/03 02:02:20;;;;;;;;;;;;;;;13.30;63.98;99825.38;5055727;28;1510;-71
2021/12/03 02:04:47;;;;;;;;;;;;;;;13.30;64.02;99816.56;5055722;28;1060;-64
2021/12/03 02:07:14;;;;;;;;;;;;;;;13.30;64.28;99816.56;5056226;28;1902;-64
2021/12/03 02:09:41;;;;;;;;;;;;;;;13.31;63.85;99823.59;5055102;28;1129;-73
2021/12/03 02:12:08;;;;;;;;;;;;;;;13.30;64.00;99828.03;5055937;28;1088;-64
2021/12/03 02:14:34;;;;;;;;;;;;;;;13.30;64.17;99819.22;5055496;28;1036;-72
2021/12/03 02:17:01;;;;;;;;;;;;;;;13.30;63.78;99828.03;5055787;28;1041;-64
2021/12/03 02:19:29;;;;;;;;;;;;;;;13.28;63.63;99823.78;5055672;28;990;-64
2021/12/03 02:21:58;;;;;;;;;;;;;;;13.28;64.27;99831.75;5055367;28;1072;-72
2021/12/03 02:24:24;;;;;;;;;;;;;;;13.28;64.51;99818.47;5055261;28;1079;-65
2021/12/03 02:26:50;;;;;;;;;;;;;;;13.27;64.17;99822.06;5055215;28;1969;-65
2021/12/03 02:29:17;;;;;;;;;;;;;;;13.28;63.70;99824.63;5055310;28;1083;-77
2021/12/03 02:31:44;;;;;;;;;;;;;;;13.28;63.93;99807.84;5055529;28;978;-71
2021/12/03 02:34:10;;;;;;;;;;;;;;;13.27;63.87;99814.13;5055466;28;1038;-65
2021/12/03 02:36:37;;;;;;;;;;;;;;;13.25;64.57;99819.56;5055227;28;1064;-65
2021/12/03 02:39:05;;;;;;;;;;;;;;;13.26;64.00;99821.25;5055121;28;1036;-65
2021/12/03 02:41:31;;;;;;;;;;;;;;;13.28;64.10;99821.13;5055110;28;1123;-64
2021/12/03 02:43:58;;;;;;;;;;;;;;;13.25;64.12;99834.63;5054935;28;1123;-71
2021/12/03 02:46:24;;;;;;;;;;;;;;;13.28;63.88;99831.75;5055322;28;1976;-64
2021/12/03 02:48:51;;;;;;;;;;;;;;;13.27;64.25;99841.53;5054912;28;1051;-65
2021/12/03 02:51:17;;;;;;;;;;;;;;;13.25;64.12;99830.19;5054903;28;1091;-66
2021/12/03 02:53:44;;;;;;;;;;;;;;;13.26;63.73;99836.34;5054864;28;1115;-71
2021/12/03 02:56:12;;;;;;;;;;;;;;;13.25;63.96;99818.69;5054465;28;987;-72
2021/12/03 02:58:38;;;;;;;;;;;;;;;13.27;63.94;99840.66;5054867;28;1025;-77
2021/12/03 03:01:06;;;;;;;;;;;;;;;13.24;64.07;99819.69;5057553;28;1425;-64
2021/12/03 03:03:33;;;;;;;;;;;;;;;13.25;63.98;99839.94;5074539;28;1436;-71
2021/12/03 03:06:00;;;;;;;;;;;;;;;13.25;64.03;99835.50;5074403;28;1902;-65
2021/12/03 03:08:28;;;;;;;;;;;;;;;13.26;64.68;99836.34;5073252;28;1129;-71
2021/12/03 03:10:55;;;;;;;;;;;;;;;13.27;64.12;99848.63;5074320;28;1064;-72
2021/12/03 03:13:23;;;;;;;;;;;;;;;13.26;64.27;99837.16;5074399;28;1049;-72
2021/12/03 03:15:50;;;;;;;;;;;;;;;13.26;64.10;99831.03;5074506;28;1039;-78
2021/12/03 03:18:18;;;;;;;;;;;;;;;13.26;64.28;99820.41;5073892;28;1060;-65
2021/12/03 03:20:45;;;;;;;;;;;;;;;13.26;63.93;99820.41;5073909;28;1591;-76
2021/12/03 03:23:12;;;;;;;;;;;;;;;13.25;64.22;99824.88;5074521;28;979;-73
2021/12/03 03:25:39;;;;;;;;;;;;;;;13.26;63.94;99826.56;5073965;28;1987;-72
2021/12/03 03:28:06;;;;;;;;;;;;;;;13.24;64.07;99817.03;5074446;28;988;-72
2021/12/03 03:30:34;;;;;;;;;;;;;;;13.23;63.83;99815.31;5074235;28;960;-71
2021/12/03 03:33:01;;;;;;;;;;;;;;;13.24;64.37;99815.22;5073995;28;1040;-73
2021/12/03 03:35:27;;;;;;;;;;;;;;;13.22;64.62;99814.50;5073903;28;1004;-64
2021/12/03 03:37:54;;;;;;;;;;;;;;;13.24;65.02;99822.34;5073741;28;1220;-72
2021/12/03 03:40:20;;;;;;;;;;;;;;;13.23;63.85;99820.63;5074207;28;973;-73
2021/12/03 03:42:47;;;;;;;;;;;;;;;13.20;64.20;99815.59;5074007;28;1175;-71
2021/12/03 03:45:15;;;;;;;;;;;;;;;13.20;64.10;99820.88;5073421;28;989;-71
2021/12/03 03:47:44;;;;;;;;;;;;;;;13.22;64.05;99817.13;5073816;28;1975;-65
2021/12/03 03:50:11;;;;;;;;;;;;;;;13.24;64.25;99825.00;5073813;28;1059;-71
2021/12/03 03:52:39;;;;;;;;;;;;;;;13.19;64.09;99822.72;5073261;28;1201;-64
2021/12/03 03:55:06;;;;;;;;;;;;;;;13.21;63.88;99828.75;5074518;28;1016;-65
2021/12/03 03:57:32;;;;;;;;;;;;;;;13.24;63.93;99838.25;5074084;28;1053;-65
2021/12/03 03:59:59;;;;;;;;;;;;;;;13.23;63.77;99825.94;5073338;28;1094;-65
2021/12/03 04:02:25;;;;;;;;;;;;;;;13.23;63.98;99823.28;5073497;28;1400;-72
2021/12/03 04:04:53;;;;;;;;;;;;;;;13.21;64.61;99833.19;5073601;28;1060;-65
2021/12/03 04:07:20;;;;;;;;;;;;;;;13.21;64.00;99833.19;5075459;28;1917;-70
2021/12/03 04:09:46;;;;;;;;;;;;;;;13.19;64.26;99825.38;5076076;28;1103;-65
2021/12/03 04:12:13;;;;;;;;;;;;;;;13.22;63.96;99832.22;5077032;28;1087;-65
2021/12/03 04:14:39;;;;;;;;;;;;;;;13.19;64.33;99819.19;5078033;28;1049;-71
2021/12/03 04:17:06;;;;;;;;;;;;;;;13.22;63.81;99824.28;5078471;28;1006;-64
2021/12/03 04:19:32;;;;;;;;;;;;;;;13.20;64.56;99826.19;5078043;28;952;-65
2021/12/03 04:22:00;;;;;;;;;;;;;;;13.21;64.01;99822.56;5077845;28;1047;-72
2021/12/03 04:24:26;;;;;;;;;;;;;;;13.19;63.92;99819.19;5077904;28;1029;-71
2021/12/03 04:26:53;;;;;;;;;;;;;;;13.20;64.07;99820.88;5077872;28;1977;-73
2021/12/03 04:29:19;;;;;;;;;;;;;;;13.19;63.88;99830.69;5077603;28;1079;-65
2021/12/03 04:31:46;;;;;;;;;;;;;;;13.17;64.38;99827.28;5077516;28;1064;-64
2021/12/03 04:34:12;;;;;;;;;;;;;;;13.19;64.25;99824.50;5077591;28;999;-72
2021/12/03 04:36:39;;;;;;;;;;;;;;;13.19;63.90;99824.50;5077447;28;1052;-71
2021/12/03 04:39:07;;;;;;;;;;;;;;;13.18;64.25;99823.66;5077384;28;1068;-64
2021/12/03 04:41:34;;;;;;;;;;;;;;;13.18;64.20;99818.34;5077600;28;1073;-64
2021/12/03 04:44:00;;;;;;;;;;;;;;;13.17;64.30;99824.66;5077780;28;996;-65
2021/12/03 04:46:26;;;;;;;;;;;;;;;13.17;64.02;99815.81;5077284;28;1902;-74
2021/12/03 04:48:53;;;;;;;;;;;;;;;13.18;64.59;99820.16;5077324;28;1138;-70
2021/12/03 04:51:19;;;;;;;;;;;;;;;13.16;64.21;99817.63;5077463;28;1053;-72
2021/12/03 04:53:46;;;;;;;;;;;;;;;13.20;64.03;99810.28;5077198;28;1027;-72
2021/12/03 04:56:27;;;;;;;;;;;;;;;13.20;64.46;99799.66;5077219;28;1032;-65
2021/12/03 04:58:53;;;;;;;;;;;;;;;13.18;64.16;99796.28;5077068;28;1102;-71
2021/12/03 05:01:20;;;;;;;;;;;;;;;13.17;63.86;99799.88;5076877;28;1512;-72
2021/12/03 05:03:46;;;;;;;;;;;;;;;13.19;64.21;99803.25;5077072;28;1008;-72
2021/12/03 05:06:16;;;;;;;;;;;;;;;13.16;63.89;99793.75;5076807;28;1906;-72
2021/12/03 05:08:43;;;;;;;;;;;;;;;13.15;64.05;99789.41;5075806;28;1212;-65
2021/12/03 05:11:09;;;;;;;;;;;;;;;13.19;64.57;99779.38;5076791;28;934;-65
2021/12/03 05:13:37;;;;;;;;;;;;;;;13.14;64.42;99785.06;5077022;28;1097;-71
2021/12/03 05:16:05;;;;;;;;;;;;;;;13.14;63.98;99812.44;5077072;28;973;-72
2021/12/03 05:18:32;;;;;;;;;;;;;;;13.16;64.35;99800.88;5076122;28;1050;-65
2021/12/03 05:20:59;;;;;;;;;;;;;;;13.18;64.65;99806.91;5076915;28;1052;-71
2021/12/03 05:23:26;;;;;;;;;;;;;;;13.18;63.58;99807.72;5076621;28;1161;-64
2021/12/03 05:25:53;;;;;;;;;;;;;;;13.18;63.96;99812.22;5076860;28;994;-71
2021/12/03 05:28:20;;;;;;;;;;;;;;;13.14;64.33;99807.13;5076424;28;1902;-72
2021/12/03 05:30:48;;;;;;;;;;;;;;;13.17;64.29;99807.84;5076801;28;974;-65
2021/12/03 05:33:15;;;;;;;;;;;;;;;13.16;64.12;99790.25;5076434;28;1009;-72
2021/12/03 05:35:41;;;;;;;;;;;;;;;13.13;64.63;99786.88;5076391;28;1052;-64
2021/12/03 05:38:08;;;;;;;;;;;;;;;13.12;63.78;99798.44;5076612;28;1014;-65
2021/12/03 05:40:34;;;;;;;;;;;;;;;13.15;64.60;99810.66;5076477;28;1023;-72
2021/12/03 05:43:01;;;;;;;;;;;;;;;13.15;64.19;99815.94;5076205;28;1119;-71
2021/12/03 05:45:28;;;;;;;;;;;;;;;13.15;64.11;99815.94;5076153;28;1032;-71
2021/12/03 05:47:57;;;;;;;;;;;;;;;13.14;64.02;99803.63;5076337;28;1977;-65
2021/12/03 05:50:24;;;;;;;;;;;;;;;13.14;64.14;99800.97;5076271;28;966;-71
2021/12/03 05:52:51;;;;;;;;;;;;;;;13.10;64.28;99805.69;5076065;28;1652;-71
2021/12/03 05:55:18;;;;;;;;;;;;;;;13.14;64.14;99814.25;5075903;28;1501;-64
2021/12/03 05:57:45;;;;;;;;;;;;;;;13.11;64.46;99812.69;5076281;28;1116;-72
2021/12/03 06:00:13;;;;;;;;;;;;;;;13.13;64.17;99810.75;5076111;28;995;-71
2021/12/03 06:02:40;;;;;;;;;;;;;;;13.10;64.30;99805.69;5075603;28;1360;-72
2021/12/03 06:05:08;;;;;;;;;;;;;;;13.15;64.20;99813.31;5075693;28;1048;-72
2021/12/03 06:07:34;;;;;;;;;;;;;;;13.14;64.14;99823.06;5075628;28;1910;-65
2021/12/03 06:10:01;;;;;;;;;;;;;;;13.13;64.20;99808.09;5074354;28;1222;-73
2021/12/03 06:12:27;;;;;;;;;;;;;;;13.12;64.23;99798.44;5075167;28;1035;-65
2021/12/03 06:14:54;;;;;;;;;;;;;;;13.12;64.16;99809.06;5075286;28;1110;-64
2021/12/03 06:17:20;;;;;;;;;;;;;;;13.17;64.30;99810.50;5075626;28;1058;-65
2021/12/03 06:19:47;;;;;;;;;;;;;;;13.13;64.45;99816.06;5075521;28;1218;-72
2021/12/03 06:22:15;;;;;;;;;;;;;;;13.12;64.38;99819.66;5075481;28;1300;-65
2021/12/03 06:24:41;;;;;;;;;;;;;;;13.12;64.49;99813.53;5075620;28;987;-65
2021/12/03 06:27:08;;;;;;;;;;;;;;;13.12;64.23;99824.16;5075499;28;1969;-72
2021/12/03 06:29:35;;;;;;;;;;;;;;;13.12;64.02;99803.75;5075129;28;1139;-65
2021/12/03 06:32:01;;;;;;;;;;;;;;;13.09;64.52;99804.00;5075245;28;1060;-65
2021/12/03 06:34:28;;;;;;;;;;;;;;;13.11;64.31;99810.03;5075167;28;1102;-71
2021/12/03 06:36:54;;;;;;;;;;;;;;;13.09;64.18;99821.72;5075405;28;978;-64
2021/12/03 06:39:22;;;;;;;;;;;;;;;13.16;64.53;99822.94;5075390;28;1053;-70
2021/12/03 06:41:49;;;;;;;;;;;;;;;13.12;63.73;99834.75;5075002;28;1060;-72
2021/12/03 06:44:15;;;;;;;;;;;;;;;13.12;64.46;99830.28;5075160;28;1012;-72
2021/12/03 06:46:42;;;;;;;;;;;;;;;13.11;64.41;99830.41;5075328;28;1906;-64
2021/12/03 06:49:08;;;;;;;;;;;;;;;13.12;64.08;99827.63;5075302;28;1073;-71
2021/12/03 06:51:40;;;;;;;;;;;;;;;13.09;64.36;99824.38;5075253;28;977;-77
2021/12/03 06:54:08;;;;;;;;;;;;;;;13.11;64.70;99833.06;5075219;28;1041;-71
2021/12/03 06:56:47;;;;;;;;;;;;;;;13.09;64.71;99835.84;5075302;28;1049;-72
2021/12/03 06:59:14;;;;;;;;;;;;;;;13.12;64.26;99829.44;5074907;28;1433;-64
2021/12/03 07:01:40;;;;;;;;;;;;;;;13.11;64.22;99841.88;5075001;28;1493;-70
2021/12/03 07:04:07;;;;;;;;;;;;;;;13.11;64.41;99841.88;5075192;28;1628;-71
2021/12/03 07:06:33;;;;;;;;;;;;;;;13.11;64.63;99844.53;5074960;28;1902;-65
2021/12/03 07:09:00;;;;;;;;;;;;;;;13.11;64.73;99839.22;5073440;28;1238;-65
2021/12/03 07:11:27;;;;;;;;;;;;;;;13.11;64.20;99855.16;5074699;28;1021;-72
2021/12/03 07:13:55;;;;;;;;;;;;;;;13.11;64.58;99847.19;5075036;28;1061;-71
2021/12/03 07:16:21;;;;;;;;;;;;;;;13.08;64.21;99858.03;5075054;28;956;-65
2021/12/03 07:18:48;;;;;;;;;;;;;;;13.06;64.10;99857.31;5074897;28;1073;-65
2021/12/03 07:21:14;;;;;;;;;;;;;;;13.11;64.67;99868.44;5074943;28;1023;-64
2021/12/03 07:23:40;;;;;;;;;;;;;;;13.08;64.60;99844.78;5074959;28;1040;-71
2021/12/03 07:26:07;;;;;;;;;;;;;;;13.09;64.29;99866.84;5074873;28;997;-64
2021/12/03 07:28:33;;;;;;;;;;;;;;;13.12;64.87;99851.53;5074918;28;1973;-72
2021/12/03 07:31:01;;;;;;;;;;;;;;;13.10;64.20;99852.63;5074869;28;983;-73
2021/12/03 07:33:29;;;;;;;;;;;;;;;13.14;64.32;99860.22;5074420;28;1036;-64
2021/12/03 07:35:56;;;;;;;;;;;;;;;13.11;64.17;99849.84;5074878;28;962;-71
2021/12/03 07:38:22;;;;;;;;;;;;;;;13.10;64.12;99848.16;5074804;28;1007;-72
2021/12/03 07:40:50;;;;;;;;;;;;;;;13.11;64.23;99864.91;5074631;28;947;-64
2021/12/03 07:43:17;;;;;;;;;;;;;;;13.15;63.75;99871.69;5078234;28;974;-75
2021/12/03 07:45:43;;;;;;;;;;;;;;;13.14;63.94;99876.13;5078566;28;1024;-71
2021/12/03 07:48:11;;;;;;;;;;;;;;;13.14;63.85;99852.25;5078354;28;1977;-71
2021/12/03 07:50:39;;;;;;;;;;;;;;;13.12;63.64;99862.16;5078368;28;1103;-77
2021/12/03 07:53:06;;;;;;;;;;;;;;;13.14;63.99;99864.69;5078556;28;1059;-77
2021/12/03 07:55:33;;;;;;;;;;;;;;;13.11;63.99;99870.22;5078231;28;1056;-65
2021/12/03 07:57:59;;;;;;;;;;;;;;;13.09;64.16;99873.00;5078190;28;1095;-64
2021/12/03 08:00:26;;;;;;;;;;;;;;;13.09;63.98;99851.78;5078227;28;1079;-65
2021/12/03 08:02:52;;;;;;;;;;;;;;;13.10;64.08;99856.09;5078230;28;1384;-71
2021/12/03 08:05:20;;;;;;;;;;;;;;;13.07;64.07;99847.53;5078373;28;984;-65
2021/12/03 08:07:48;;;;;;;;;;;;;;;13.09;64.36;99830.53;5077101;28;1905;-64
2021/12/03 08:10:15;;;;;;;;;;;;;;;13.06;64.02;99849.34;5076286;28;1160;-71
2021/12/03 08:12:42;;;;;;;;;;;;;;;13.09;64.03;99849.13;5077372;28;1048;-72
2021/12/03 08:15:08;;;;;;;;;;;;;;;13.13;64.16;99847.91;5077654;28;977;-65
2021/12/03 08:17:35;;;;;;;;;;;;;;;13.12;63.62;99850.69;5077484;28;970;-65
2021/12/03 08:20:02;;;;;;;;;;;;;;;13.13;64.21;99863.00;5077657;28;1061;-64
2021/12/03 08:22:29;;;;;;;;;;;;;;;13.11;63.83;99860.47;5077780;28;1043;-77
2021/12/03 08:24:56;;;;;;;;;;;;;;;13.13;64.14;99865.66;5076704;28;1029;-65
2021/12/03 08:27:22;;;;;;;;;;;;;;;13.13;63.75;99863.84;5077352;28;1977;-64
2021/12/03 08:29:49;;;;;;;;;;;;;;;13.13;63.51;99860.34;5077072;28;1052;-64
2021/12/03 08:32:16;;;;;;;;;;;;;;;13.13;63.74;99869.16;5077835;28;946;-71
2021/12/03 08:34:42;;;;;;;;;;;;;;;13.13;63.35;99865.66;5078046;28;1031;-71
2021/12/03 08:37:09;;;;;;;;;;;;;;;13.10;63.75;99869.38;5077081;28;1009;-64
2021/12/03 08:39:37;;;;;;;;;;;;;;;13.06;63.92;99862.63;5077102;28;1255;-65
2021/12/03 08:42:05;;;;;;;;;;;;;;;13.06;64.16;99852.00;5077061;28;952;-71
2021/12/03 08:44:32;;;;;;;;;;;;;;;13.08;63.61;99859.84;5077037;28;1062;-66
2021/12/03 08:47:03;;;;;;;;;;;;;;;13.06;63.94;99851.16;5077083;28;1072;-71
2021/12/03 08:49:31;;;;;;;;;;;;;;;13.09;63.50;99857.09;5077037;28;1900;-72
2021/12/03 08:52:24;;;;;;;;;;;;;;;13.11;63.89;99865.78;5076527;28;995;-72
2021/12/03 08:54:52;;;;;;;;;;;;;;;13.09;63.74;99873.00;5075936;28;957;-64
2021/12/03 08:57:20;;;;;;;;;;;;;;;13.09;63.66;99877.47;5076734;28;1046;-64
2021/12/03 08:59:46;;;;;;;;;;;;;;;13.10;63.88;99873.84;5076828;28;1059;-64
2021/12/03 09:02:13;;;;;;;;;;;;;;;13.10;63.61;99860.59;5076655;28;1494;-72
2021/12/03 09:04:39;;;;;;;;;;;;;;;13.11;64.27;99871.09;5076262;28;1008;-72
2021/12/03 09:07:05;;;;;;;;;;;;;;;13.12;63.90;99878.06;5076479;28;910;-71
2021/12/03 09:09:32;;;;;;;;;;;;;;;13.11;63.87;99852.50;5075560;28;1902;-72
2021/12/03 09:12:00;;;;;;;;;;;;;;;13.10;64.08;99852.63;5076211;28;1064;-71
2021/12/03 09:14:32;;;;;;;;;;;;;;;13.11;64.13;99864.91;5076781;28;953;-71
2021/12/03 09:17:03;;;;;;;;;;;;;;;13.09;63.86;99858.88;5076545;28;1008;-64
2021/12/03 09:19:34;;;;;;;;;;;;;;;13.09;64.01;99856.22;5076035;28;1415;-64
2021/12/03 09:22:00;;;;;;;;;;;;;;;13.09;63.88;99862.41;5076235;28;1032;-65
2021/12/03 09:24:31;;;;;;;;;;;;;;;13.08;63.84;99858.03;5076365;28;1064;-64
2021/12/03 09:26:58;;;;;;;;;;;;;;;13.11;64.01;99868.44;5075995;28;1012;-66
2021/12/03 09:29:30;;;;;;;;;;;;;;;13.08;63.82;99855.38;5076287;28;2043;-65
2021/12/03 09:31:58;;;;;;;;;;;;;;;13.09;64.43;99842.94;5075671;28;1056;-65
2021/12/03 09:34:25;;;;;;;;;;;;;;;13.09;63.94;99835.84;5076176;28;1016;-64
2021/12/03 09:36:51;;;;;;;;;;;;;;;13.10;64.06;99834.88;5076358;28;997;-72
2021/12/03 09:39:20;;;;;;;;;;;;;;;13.10;63.97;99829.56;5075816;28;1002;-72
2021/12/03 09:41:46;;;;;;;;;;;;;;;13.13;63.77;99832.00;5076231;28;952;-72
2021/12/03 09:44:13;;;;;;;;;;;;;;;13.13;63.87;99832.00;5075521;28;1021;-64
2021/12/03 09:46:41;;;;;;;;;;;;;;;13.09;64.49;99829.69;5075686;28;1075;-73
2021/12/03 09:49:30;;;;;;;;;;;;;;;13.11;63.89;99827.75;5075743;28;1918;-64
2021/12/03 09:52:08;;;;;;;;;;;;;;;13.12;63.63;99835.59;5075262;28;1091;-71
2021/12/03 09:54:41;;;;;;;;;;;;;;;13.11;63.80;99822.44;5075491;28;1079;-65
2021/12/03 09:57:10;;;;;;;;;;;;;;;13.11;64.23;99817.13;5075588;28;1017;-65
2021/12/03 10:13:20;;;;;;;;;;;;;;;13.22;63.59;99818.97;5075513;28;1461;-64
2021/12/03 10:15:55;;;;;;;;;;;;;;;13.16;63.93;99814.13;5075601;28;1028;-71
2021/12/03 10:18:38;;;;;;;;;;;;;;;13.22;64.22;99813.66;5075473;28;1020;-64
2021/12/03 10:21:12;;;;;;;;;;;;;;;13.21;63.86;99811.94;5075868;28;948;-65
2021/12/03 10:34:48;;;;;;;;;;;;;;;13.27;63.64;99807.00;5075538;28;805;-64
2021/12/03 10:40:07;;;;;;;;;;;;;;;13.31;63.90;99802.34;5072145;28;1057;-72
2021/12/03 10:42:49;;;;;;;;;;;;;;;13.31;63.96;99805.00;5075402;28;1036;-72
2021/12/03 10:45:24;;;;;;;;;;;;;;;13.29;63.47;99805.13;5075405;28;1009;-71
2021/12/03 10:48:17;;;;;;;;;;;;;;;13.30;63.66;99816.56;5075259;28;1910;-65
2021/12/03 10:53:37;;;;;;;;;;;;;;;13.25;63.59;99816.03;5074996;28;627;-64
2021/12/03 11:07:30;;;;;;;;;;;;;;;13.19;63.97;99827.16;5075153;28;761;-65
2021/12/03 11:18:38;;;;;;;;;;;;;;;13.22;63.88;99827.75;5074373;28;686;-71
2021/12/03 11:44:10;;;;;;;;;;;;;;;13.26;64.28;99817.75;5074508;28;619;-73
2021/12/03 13:13:49;;;;;;;;;;;;;;;14.22;61.72;99856.09;5070041;28;726;-64
2021/12/03 14:40:01;;;;;;;;;;;;;;;16.47;58.30;100008.22;5075172;28;1482;-71
2021/12/03 14:42:49;;;;;;;;;;;;;;;16.54;57.28;100030.75;5075501;28;1052;-71
2021/12/03 14:48:30;;;;;;;;;;;;;;;16.11;58.62;100045.19;5072939;28;1898;-63
2021/12/03 14:51:22;;;;;;;;;;;;;;;16.26;58.34;100043.88;5074772;28;1016;-72
2021/12/03 14:54:14;;;;;;;;;;;;;;;16.37;58.12;100050.91;5074967;28;1071;-72
2021/12/03 14:56:42;;;;;;;;;;;;;;;16.43;57.84;100054.84;5075016;28;1058;-71
2021/12/03 14:59:14;;;;;;;;;;;;;;;16.41;57.73;100062.16;5075185;28;1506;-72
2021/12/03 15:01:48;;;;;;;;;;;;;;;16.42;59.06;100071.88;5075259;28;1360;-63
2021/12/03 15:07:04;;;;;;;;;;;;;;;16.35;58.58;100084.88;5073732;28;1130;-72
2021/12/03 15:09:34;;;;;;;;;;;;;;;16.42;58.38;100098.56;5074439;28;1905;-63
2021/12/03 15:25:50;;;;;;;;;;;;;;;16.39;58.22;100098.81;5034962;28;679;-71
2021/12/03 15:31:26;;;;;;;;;;;;;;;16.42;58.09;100111.91;5034614;28;954;-71
2021/12/03 15:33:59;;;;;;;;;;;;;;;16.45;58.17;100127.63;5034923;28;1039;-72
2021/12/03 15:36:34;;;;;;;;;;;;;;;16.45;58.69;100109.81;5034622;28;1020;-63
2021/12/03 15:39:12;;;;;;;;;;;;;;;16.49;58.10;100111.22;5034862;28;964;-71
2021/12/03 15:56:24;;;;;;;;;;;;;;;16.42;58.68;100155.44;4861239;27;8250511;-41
2021/12/03 16:04:21;;;;;;;;;;;;;;;16.39;58.19;100171.69;5152576;27;732;-41
2021/12/03 16:07:02;;;;;;;;;;;;;;;16.44;58.95;100177.50;5152340;27;1077;-41
2021/12/03 16:09:50;;;;;;;;;;;;;;;16.42;59.38;100189.28;5152394;27;1057;-41
2021/12/03 16:12:25;;;;;;;;;;;;;;;16.48;58.56;100194.09;5152540;27;1067;-41
2021/12/03 16:15:09;;;;;;;;;;;;;;;16.38;58.20;100217.22;5152443;27;1913;-41
2021/12/03 16:20:35;;;;;;;;;;;;;;;16.40;58.44;100215.25;5151895;27;2843;-41
2021/12/03 16:23:16;;;;;;;;;;;;;;;16.36;58.72;100229.84;5152095;27;1148;-41
2021/12/03 16:53:31;;;;;;;;;;;;;;;16.42;58.74;100272.00;5101809;27;3033;-41
2021/12/03 16:56:04;;;;;;;;;;;;;;;16.45;58.74;100277.06;5151663;27;1057;-41
2021/12/03 16:58:32;;;;;;;;;;;;;;;16.48;58.70;100277.66;5151362;27;1070;-41
2021/12/03 17:01:05;;;;;;;;;;;;;;;16.45;58.47;100285.06;5151222;27;1577;-41
2021/12/03 17:03:37;;;;;;;;;;;;;;;16.37;59.56;100303.56;5151282;27;1070;-41
2021/12/03 17:09:04;;;;;;;;;;;;;;;16.41;59.70;100307.66;5137607;27;669;-41
2021/12/03 17:11:47;;;;;;;;;;;;;;;16.44;58.58;100308.25;5137643;27;1010;-41
2021/12/03 17:14:23;;;;;;;;;;;;;;;16.52;59.47;100317.44;5137188;27;1998;-41
2021/12/03 17:20:19;;;;;;;;;;;;;;;16.42;59.42;100298.69;5073920;28;1350;-41
2021/12/03 17:51:01;;;;;;;;;;;;;;;16.51;58.50;100324.59;5126250;27;1045;-41
2021/12/03 17:56:33;;;;;;;;;;;;;;;16.56;58.81;100333.06;4860872;27;8261780;-41
2021/12/03 17:59:08;;;;;;;;;;;;;;;16.58;59.04;100340.94;5152766;27;1078;-41
2021/12/03 18:01:38;;;;;;;;;;;;;;;16.58;58.44;100344.44;5152715;27;1399;-41
2021/12/03 18:04:09;;;;;;;;;;;;;;;16.53;58.85;100360.00;5152686;27;1080;-41
2021/12/03 18:06:55;;;;;;;;;;;;;;;16.48;59.17;100378.25;5152314;27;929;-41
2021/12/03 18:09:45;;;;;;;;;;;;;;;16.48;58.53;100387.09;5152677;27;1079;-43
2021/12/03 18:45:21;;;;;;;;;;;;;;;16.64;58.75;100447.22;5151728;27;733;-43
2021/12/03 18:53:24;;;;;;;;;;;;;;;16.58;59.56;100440.56;5140991;27;936;-44
2021/12/03 18:55:53;;;;;;;;;;;;;;;16.69;59.02;100448.53;5151030;27;1913;-43
2021/12/03 18:58:22;;;;;;;;;;;;;;;16.64;59.59;100437.38;5151394;27;1526;-43
2021/12/03 19:00:51;;;;;;;;;;;;;;;16.62;59.01;100449.16;5151561;27;1414;-43
2021/12/03 19:03:23;;;;;;;;;;;;;;;16.64;59.37;100437.38;5151261;27;1058;-43
2021/12/03 19:05:59;;;;;;;;;;;;;;;16.67;59.35;100431.78;5148454;27;1076;-44
2021/12/03 19:08:35;;;;;;;;;;;;;;;16.65;58.56;100441.75;5137697;27;1072;-43
2021/12/03 19:11:06;;;;;;;;;;;;;;;16.69;59.67;100440.53;5137655;27;1075;-44
2021/12/03 19:13:37;;;;;;;;;;;;;;;16.63;59.38;100442.84;5137578;27;1088;-43
2021/12/03 19:16:08;;;;;;;;;;;;;;;16.64;59.30;100468.56;5137438;27;2034;-44
2021/12/03 19:18:34;;;;;;;;;;;;;;;16.72;59.23;100463.44;5137487;27;1023;-43
2021/12/03 19:21:06;;;;;;;;;;;;;;;16.63;58.84;100478.41;5137192;27;1151;-44
2021/12/03 19:23:33;;;;;;;;;;;;;;;16.63;59.59;100489.09;5137545;27;1073;-43
2021/12/03 19:25:59;;;;;;;;;;;;;;;16.75;59.25;100481.00;5137045;27;1086;-44
2021/12/03 19:28:26;;;;;;;;;;;;;;;16.69;58.48;100493.91;5136948;27;1185;-41
2021/12/03 19:30:54;;;;;;;;;;;;;;;16.64;59.44;100501.44;5136890;27;1103;-41
2021/12/03 19:33:22;;;;;;;;;;;;;;;16.65;59.44;100519.19;5137256;27;1069;-41
2021/12/03 19:35:48;;;;;;;;;;;;;;;16.71;59.38;100507.13;5136769;27;1909;-41
2021/12/03 19:38:17;;;;;;;;;;;;;;;16.68;59.60;100505.56;5137126;27;998;-41
2021/12/03 19:40:51;;;;;;;;;;;;;;;16.69;59.59;100517.94;5136733;27;1074;-41